Aviation Digital Data Service (ADDS)

Output produced by METARs form (2046 UTC 23 January 2019)
found at http://www.aviationweather.gov/metar/data/
 
METAR text: UKKM 232030Z AUTO 03002MPS 350V070 7000 -SN ///015/// M07/M08 Q1006
Conditions at: UKKM (GOSTOMEL' , UA) observed 2030 UTC 23 January 2019
Temperature: -7.0°C (19°F)
Dewpoint: -8.0°C (18°F) [RH = 93%]
Pressure (altimeter): 29.70 inches Hg (1006.0 mb)
Winds: from the NNE (30 degrees) at 5 MPH (4 knots; 2.1 m/s)
Visibility: 4 miles ( 7 km)
Ceiling: unknown
Clouds: missing
Weather: -SN  (light snow)

METAR text: UKKM 232000Z AUTO 04002MPS 010V080 6000 -SN ///043/// M07/M07 Q1006
Conditions at: UKKM (GOSTOMEL' , UA) observed 2000 UTC 23 January 2019
Temperature: -7.0°C (19°F)
Dewpoint: -7.0°C (19°F) [RH = 100%]
Pressure (altimeter): 29.70 inches Hg (1006.0 mb)
Winds: from the NE (40 degrees) at 5 MPH (4 knots; 2.1 m/s)
Visibility: 4 miles ( 6 km)
Ceiling: unknown
Clouds: missing
Weather: -SN  (light snow)

METAR text: UKKM 231930Z AUTO 04002MPS 6000 -SN ///015/// M07/M07 Q1006
Conditions at: UKKM (GOSTOMEL' , UA) observed 1930 UTC 23 January 2019
Temperature: -7.0°C (19°F)
Dewpoint: -7.0°C (19°F) [RH = 100%]
Pressure (altimeter): 29.70 inches Hg (1006.0 mb)
Winds: from the NE (40 degrees) at 5 MPH (4 knots; 2.1 m/s)
Visibility: 4 miles ( 6 km)
Ceiling: unknown
Clouds: missing
Weather: -SN  (light snow)

METAR text: UKKM 231900Z AUTO 05002MPS 010V120 3600 -SN ///016/// M07/M07 Q1006
Conditions at: UKKM (GOSTOMEL' , UA) observed 1900 UTC 23 January 2019
Temperature: -7.0°C (19°F)
Dewpoint: -7.0°C (19°F) [RH = 100%]
Pressure (altimeter): 29.70 inches Hg (1006.0 mb)
Winds: from the NE (50 degrees) at 5 MPH (4 knots; 2.1 m/s)
Visibility: 2.24 miles (3.60 km)
Ceiling: unknown
Clouds: missing
Weather: -SN  (light snow)

METAR text: UKKM 231830Z AUTO 07002MPS 030V110 3400 -SN ///018/// M07/M07 Q1006
Conditions at: UKKM (GOSTOMEL' , UA) observed 1830 UTC 23 January 2019
Temperature: -7.0°C (19°F)
Dewpoint: -7.0°C (19°F) [RH = 100%]
Pressure (altimeter): 29.70 inches Hg (1006.0 mb)
Winds: from the ENE (70 degrees) at 5 MPH (4 knots; 2.1 m/s)
Visibility: 2.11 miles (3.40 km)
Ceiling: unknown
Clouds: missing
Weather: -SN  (light snow)

METAR text: UKKM 231800Z AUTO 07003MPS 3200 -SN ///025/// M07/M07 Q1006
Conditions at: UKKM (GOSTOMEL' , UA) observed 1800 UTC 23 January 2019
Temperature: -7.0°C (19°F)
Dewpoint: -7.0°C (19°F) [RH = 100%]
Pressure (altimeter): 29.70 inches Hg (1006.0 mb)
Winds: from the ENE (70 degrees) at 7 MPH (6 knots; 3.1 m/s)
Visibility: 1.99 miles (3.20 km)
Ceiling: unknown
Clouds: missing
Weather: -SN  (light snow)

METAR text: UKKM 231730Z AUTO 07003MPS 040V100 3200 -SN ///027/// M07/M07 Q1006
Conditions at: UKKM (GOSTOMEL' , UA) observed 1730 UTC 23 January 2019
Temperature: -7.0°C (19°F)
Dewpoint: -7.0°C (19°F) [RH = 100%]
Pressure (altimeter): 29.70 inches Hg (1006.0 mb)
Winds: from the ENE (70 degrees) at 7 MPH (6 knots; 3.1 m/s)
Visibility: 1.99 miles (3.20 km)
Ceiling: unknown
Clouds: missing
Weather: -SN  (light snow)

METAR text: UKKM 231700Z AUTO 07003MPS 040V110 3400 -SN ///019/// M07/M07 Q1006
Conditions at: UKKM (GOSTOMEL' , UA) observed 1700 UTC 23 January 2019
Temperature: -7.0°C (19°F)
Dewpoint: -7.0°C (19°F) [RH = 100%]
Pressure (altimeter): 29.70 inches Hg (1006.0 mb)
Winds: from the ENE (70 degrees) at 7 MPH (6 knots; 3.1 m/s)
Visibility: 2.11 miles (3.40 km)
Ceiling: unknown
Clouds: missing
Weather: -SN  (light snow)

METAR text: UKKM 231630Z AUTO 07003MPS 030V100 3600 -SN ///035/// M07/M07 Q1006
Conditions at: UKKM (GOSTOMEL' , UA) observed 1630 UTC 23 January 2019
Temperature: -7.0°C (19°F)
Dewpoint: -7.0°C (19°F) [RH = 100%]
Pressure (altimeter): 29.70 inches Hg (1006.0 mb)
Winds: from the ENE (70 degrees) at 7 MPH (6 knots; 3.1 m/s)
Visibility: 2.24 miles (3.60 km)
Ceiling: unknown
Clouds: missing
Weather: -SN  (light snow)

METAR text: UKKM 231600Z AUTO 06003MPS 3100 -SN ///021/// M07/M07 Q1007
Conditions at: UKKM (GOSTOMEL' , UA) observed 1600 UTC 23 January 2019
Temperature: -7.0°C (19°F)
Dewpoint: -7.0°C (19°F) [RH = 100%]
Pressure (altimeter): 29.73 inches Hg (1007.0 mb)
Winds: from the ENE (60 degrees) at 7 MPH (6 knots; 3.1 m/s)
Visibility: 1.93 miles (3.11 km)
Ceiling: unknown
Clouds: missing
Weather: -SN  (light snow)

METAR text: UKKM 231530Z AUTO 06003MPS 040V100 2100 -SN ///015/// M07/M07 Q1007
Conditions at: UKKM (GOSTOMEL' , UA) observed 1530 UTC 23 January 2019
Temperature: -7.0°C (19°F)
Dewpoint: -7.0°C (19°F) [RH = 100%]
Pressure (altimeter): 29.73 inches Hg (1007.0 mb)
Winds: from the ENE (60 degrees) at 7 MPH (6 knots; 3.1 m/s)
Visibility: 1.30 miles (2.09 km)
Ceiling: unknown
Clouds: missing
Weather: -SN  (light snow)

METAR text: UKKM 231500Z 07003MPS 1900 SN SCT011 OVC021 M07/M07 Q1007 R33/491035 TEMPO 0500 +SHSN SCT005 BKN010CB
Conditions at: UKKM (GOSTOMEL' , UA) observed 1500 UTC 23 January 2019
Temperature: -7.0°C (19°F)
Dewpoint: -7.0°C (19°F) [RH = 100%]
Pressure (altimeter): 29.73 inches Hg (1007.0 mb)
Winds: from the ENE (70 degrees) at 7 MPH (6 knots; 3.1 m/s)
Visibility: 1.18 miles (1.90 km)
Ceiling: 2100 feet AGL
Clouds: scattered clouds at 1100 feet AGL
overcast cloud deck at 2100 feet AGL
Weather: SN  (moderate snow)

METAR text: UKKM 231430Z 08004MPS 1700 SN SCT011 OVC024 M07/M07 Q1007 R33/491035 TEMPO 0500 +SHSN SCT005 BKN010CB
Conditions at: UKKM (GOSTOMEL' , UA) observed 1430 UTC 23 January 2019
Temperature: -7.0°C (19°F)
Dewpoint: -7.0°C (19°F) [RH = 100%]
Pressure (altimeter): 29.73 inches Hg (1007.0 mb)
Winds: from the E (80 degrees) at 9 MPH (8 knots; 4.1 m/s)
Visibility: 1.06 miles (1.71 km)
Ceiling: 2400 feet AGL
Clouds: scattered clouds at 1100 feet AGL
overcast cloud deck at 2400 feet AGL
Weather: SN  (moderate snow)

METAR text: UKKM 231426Z 07003MPS 1800 SN SCT012 OVC024 M07/M07 Q1007 R33/491035 TEMPO 0500 +SHSN SCT005 BKN010CB
Conditions at: UKKM (GOSTOMEL' , UA) observed 1426 UTC 23 January 2019
Temperature: -7.0°C (19°F)
Dewpoint: -7.0°C (19°F) [RH = 100%]
Pressure (altimeter): 29.73 inches Hg (1007.0 mb)
Winds: from the ENE (70 degrees) at 7 MPH (6 knots; 3.1 m/s)
Visibility: 1.12 miles (1.80 km)
Ceiling: 2400 feet AGL
Clouds: scattered clouds at 1200 feet AGL
overcast cloud deck at 2400 feet AGL
Weather: SN  (moderate snow)

METAR text: UKKM 231411Z 07003MPS 1200 R33/1700D SN SCT013 OVC024 M07/M07 Q1007 R33/491035 TEMPO 0500 +SHSN SCT005 BKN010CB
Conditions at: UKKM (GOSTOMEL' , UA) observed 1411 UTC 23 January 2019
Temperature: -7.0°C (19°F)
Dewpoint: -7.0°C (19°F) [RH = 100%]
Pressure (altimeter): 29.73 inches Hg (1007.0 mb)
Winds: from the ENE (70 degrees) at 7 MPH (6 knots; 3.1 m/s)
Visibility: 0.75 miles (1.21 km)
Ceiling: 2400 feet AGL
Clouds: scattered clouds at 1300 feet AGL
overcast cloud deck at 2400 feet AGL
Weather: SN  (moderate snow)

METAR text: UKKM 231400Z 08003MPS 1200 0900NE R33/1800N +SN SCT013 OVC024 M07/M07 Q1007 R33/491035 TEMPO 0500 +SHSN SCT005 BKN010CB
Conditions at: UKKM (GOSTOMEL' , UA) observed 1400 UTC 23 January 2019
Temperature: -7.0°C (19°F)
Dewpoint: -7.0°C (19°F) [RH = 100%]
Pressure (altimeter): 29.73 inches Hg (1007.0 mb)
Winds: from the E (80 degrees) at 7 MPH (6 knots; 3.1 m/s)
Visibility: 0.75 miles (1.21 km)
Ceiling: 2400 feet AGL
Clouds: scattered clouds at 1300 feet AGL
overcast cloud deck at 2400 feet AGL
Weather: +SN  (heavy snow)

METAR text: UKKM 231330Z 07003MPS 1200 R33/1700U SN SCT009 OVC024 M07/M07 Q1008 R33/491035 TEMPO 0500 +SHSN SCT005 BKN010CB
Conditions at: UKKM (GOSTOMEL' , UA) observed 1330 UTC 23 January 2019
Temperature: -7.0°C (19°F)
Dewpoint: -7.0°C (19°F) [RH = 100%]
Pressure (altimeter): 29.76 inches Hg (1008.0 mb)
Winds: from the ENE (70 degrees) at 7 MPH (6 knots; 3.1 m/s)
Visibility: 0.75 miles (1.21 km)
Ceiling: 2400 feet AGL
Clouds: scattered clouds at 900 feet AGL
overcast cloud deck at 2400 feet AGL
Weather: SN  (moderate snow)

METAR text: UKKM 231300Z 08003MPS 1200 1000NE R33/1600N SN SCT012 OVC021 M07/M07 Q1008 R33/491035 TEMPO 0500 +SHSN SCT005 BKN010CB
Conditions at: UKKM (GOSTOMEL' , UA) observed 1300 UTC 23 January 2019
Temperature: -7.0°C (19°F)
Dewpoint: -7.0°C (19°F) [RH = 100%]
Pressure (altimeter): 29.76 inches Hg (1008.0 mb)
Winds: from the E (80 degrees) at 7 MPH (6 knots; 3.1 m/s)
Visibility: 0.75 miles (1.21 km)
Ceiling: 2100 feet AGL
Clouds: scattered clouds at 1200 feet AGL
overcast cloud deck at 2100 feet AGL
Weather: SN  (moderate snow)

METAR text: UKKM 231230Z 08004MPS 1000 R33/1400N SN SCT013 OVC021 M07/M08 Q1008 R33/491035 TEMPO 0500 +SHSN SCT005 BKN010CB
Conditions at: UKKM (GOSTOMEL' , UA) observed 1230 UTC 23 January 2019
Temperature: -7.0°C (19°F)
Dewpoint: -8.0°C (18°F) [RH = 93%]
Pressure (altimeter): 29.76 inches Hg (1008.0 mb)
Winds: from the E (80 degrees) at 9 MPH (8 knots; 4.1 m/s)
Visibility: 0.62 miles (1.00 km)
Ceiling: 2100 feet AGL
Clouds: scattered clouds at 1300 feet AGL
overcast cloud deck at 2100 feet AGL
Weather: SN  (moderate snow)

METAR text: UKKM 231200Z 08003MPS 040V110 1000 0900NE R33/1300N +SN SCT011 OVC021 M07/M08 Q1008 R33/491035 TEMPO 0500 +SHSN SCT005 BKN010CB
Conditions at: UKKM (GOSTOMEL' , UA) observed 1200 UTC 23 January 2019
Temperature: -7.0°C (19°F)
Dewpoint: -8.0°C (18°F) [RH = 93%]
Pressure (altimeter): 29.76 inches Hg (1008.0 mb)
Winds: from the E (80 degrees) at 7 MPH (6 knots; 3.1 m/s)
Visibility: 0.62 miles (1.00 km)
Ceiling: 2100 feet AGL
Clouds: scattered clouds at 1100 feet AGL
overcast cloud deck at 2100 feet AGL
Weather: +SN  (heavy snow)

METAR text: UKKM 231153Z 08003MPS 1100 1000NE R33/1400N SN SCT012 OVC020 M07/M08 Q1008 R33/491035 TEMPO 0500 +SHSN SCT005 BKN010CB
Conditions at: UKKM (GOSTOMEL' , UA) observed 1153 UTC 23 January 2019
Temperature: -7.0°C (19°F)
Dewpoint: -8.0°C (18°F) [RH = 93%]
Pressure (altimeter): 29.76 inches Hg (1008.0 mb)
Winds: from the E (80 degrees) at 7 MPH (6 knots; 3.1 m/s)
Visibility: 0.68 miles (1.09 km)
Ceiling: 2000 feet AGL
Clouds: scattered clouds at 1200 feet AGL
overcast cloud deck at 2000 feet AGL
Weather: SN  (moderate snow)

METAR text: UKKM 231130Z 08003MPS 0900 0800NE R33/1200N +SN SCT010 OVC020 M07/M08 Q1009 R33/491035 TEMPO 0500 +SHSN SCT005 BKN010CB
Conditions at: UKKM (GOSTOMEL' , UA) observed 1130 UTC 23 January 2019
Temperature: -7.0°C (19°F)
Dewpoint: -8.0°C (18°F) [RH = 93%]
Pressure (altimeter): 29.79 inches Hg (1009.0 mb)
Winds: from the E (80 degrees) at 7 MPH (6 knots; 3.1 m/s)
Visibility: 0.56 miles (0.90 km)
Ceiling: 2000 feet AGL
Clouds: scattered clouds at 1000 feet AGL
overcast cloud deck at 2000 feet AGL
Weather: +SN  (heavy snow)

METAR text: UKKM 231100Z 09005MPS 1000 0900NE R33/1300N +SN SCT010 OVC022 M07/M08 Q1009 R33/491035 TEMPO 0500 +SHSN SCT005 BKN010CB
Conditions at: UKKM (GOSTOMEL' , UA) observed 1100 UTC 23 January 2019
Temperature: -7.0°C (19°F)
Dewpoint: -8.0°C (18°F) [RH = 93%]
Pressure (altimeter): 29.79 inches Hg (1009.0 mb)
Winds: from the E (90 degrees) at 12 MPH (10 knots; 5.1 m/s)
Visibility: 0.62 miles (1.00 km)
Ceiling: 2200 feet AGL
Clouds: scattered clouds at 1000 feet AGL
overcast cloud deck at 2200 feet AGL
Weather: +SN  (heavy snow)

METAR text: UKKM 231030Z 09005MPS 1000 0800NE R33/1300N +SN SCT011 OVC022 M07/M08 Q1010 R33/491035 TEMPO 0500 +SHSN BKN005 BKN010CB
Conditions at: UKKM (GOSTOMEL' , UA) observed 1030 UTC 23 January 2019
Temperature: -7.0°C (19°F)
Dewpoint: -8.0°C (18°F) [RH = 93%]
Pressure (altimeter): 29.82 inches Hg (1010.0 mb)
Winds: from the E (90 degrees) at 12 MPH (10 knots; 5.1 m/s)
Visibility: 0.62 miles (1.00 km)
Ceiling: 2200 feet AGL
Clouds: scattered clouds at 1100 feet AGL
overcast cloud deck at 2200 feet AGL
Weather: +SN  (heavy snow)

METAR text: UKKM 231025Z 09005MPS 0900 0800NE R33/1300N +SN SCT010 OVC026 M07/M08 Q1010 R33/491035 TEMPO 0500 +SHSN BKN005 BKN010CB
Conditions at: UKKM (GOSTOMEL' , UA) observed 1025 UTC 23 January 2019
Temperature: -7.0°C (19°F)
Dewpoint: -8.0°C (18°F) [RH = 93%]
Pressure (altimeter): 29.82 inches Hg (1010.0 mb)
Winds: from the E (90 degrees) at 12 MPH (10 knots; 5.1 m/s)
Visibility: 0.56 miles (0.90 km)
Ceiling: 2600 feet AGL
Clouds: scattered clouds at 1000 feet AGL
overcast cloud deck at 2600 feet AGL
Weather: +SN  (heavy snow)

METAR text: UKKM 231000Z 09005MPS 1300 1200NE R33/1700D SN BR SCT013 OVC026 M07/M08 Q1010 R33/491035 TEMPO 0500 +SHSN BKN005 BKN010CB
Conditions at: UKKM (GOSTOMEL' , UA) observed 1000 UTC 23 January 2019
Temperature: -7.0°C (19°F)
Dewpoint: -8.0°C (18°F) [RH = 93%]
Pressure (altimeter): 29.82 inches Hg (1010.0 mb)
Winds: from the E (90 degrees) at 12 MPH (10 knots; 5.1 m/s)
Visibility: 0.81 miles (1.30 km)
Ceiling: 2600 feet AGL
Clouds: scattered clouds at 1300 feet AGL
overcast cloud deck at 2600 feet AGL
Weather: SN BR  (moderate snow, mist)

METAR text: UKKM 230930Z 09005MPS 1300 1200NE R33/1900U SN BR SCT013 OVC026 M07/M08 Q1011 R33/491035 TEMPO 0500 +SHSN BKN005 BKN010CB
Conditions at: UKKM (GOSTOMEL' , UA) observed 0930 UTC 23 January 2019
Temperature: -7.0°C (19°F)
Dewpoint: -8.0°C (18°F) [RH = 93%]
Pressure (altimeter): 29.85 inches Hg (1011.0 mb)
Winds: from the E (90 degrees) at 12 MPH (10 knots; 5.1 m/s)
Visibility: 0.81 miles (1.30 km)
Ceiling: 2600 feet AGL
Clouds: scattered clouds at 1300 feet AGL
overcast cloud deck at 2600 feet AGL
Weather: SN BR  (moderate snow, mist)

METAR text: UKKM 230925Z 10005MPS 1300 1200NE R33/1800N SN SCT013 OVC027 M07/M08 Q1011 R33/491035 TEMPO 0500 +SHSN BKN005 BKN010CB
Conditions at: UKKM (GOSTOMEL' , UA) observed 0925 UTC 23 January 2019
Temperature: -7.0°C (19°F)
Dewpoint: -8.0°C (18°F) [RH = 93%]
Pressure (altimeter): 29.85 inches Hg (1011.0 mb)
Winds: from the E (100 degrees) at 12 MPH (10 knots; 5.1 m/s)
Visibility: 0.81 miles (1.30 km)
Ceiling: 2700 feet AGL
Clouds: scattered clouds at 1300 feet AGL
overcast cloud deck at 2700 feet AGL
Weather: SN  (moderate snow)

METAR text: UKKM 230900Z 10005MPS 1100 0900NE R33/1600U +SN SCT012 OVC027 M07/M08 Q1011 R33/491035 TEMPO 0500 +SHSN BKN005 BKN010CB
Conditions at: UKKM (GOSTOMEL' , UA) observed 0900 UTC 23 January 2019
Temperature: -7.0°C (19°F)
Dewpoint: -8.0°C (18°F) [RH = 93%]
Pressure (altimeter): 29.85 inches Hg (1011.0 mb)
Winds: from the E (100 degrees) at 12 MPH (10 knots; 5.1 m/s)
Visibility: 0.68 miles (1.09 km)
Ceiling: 2700 feet AGL
Clouds: scattered clouds at 1200 feet AGL
overcast cloud deck at 2700 feet AGL
Weather: +SN  (heavy snow)

METAR text: UKKM 230842Z 09004MPS 0900 R33/1200N +SN SCT010 OVC027 M07/M08 Q1012 R33/491035 TEMPO 0500 +SHSN BKN005 BKN010CB
Conditions at: UKKM (GOSTOMEL' , UA) observed 0842 UTC 23 January 2019
Temperature: -7.0°C (19°F)
Dewpoint: -8.0°C (18°F) [RH = 93%]
Pressure (altimeter): 29.88 inches Hg (1012.0 mb)
Winds: from the E (90 degrees) at 9 MPH (8 knots; 4.1 m/s)
Visibility: 0.56 miles (0.90 km)
Ceiling: 2700 feet AGL
Clouds: scattered clouds at 1000 feet AGL
overcast cloud deck at 2700 feet AGL
Weather: +SN  (heavy snow)

METAR text: UKKM 230830Z 10004MPS 1100 1000NE R33/1400N SN BR SCT011 OVC027 M08/M08 Q1012 R33/491035 TEMPO 0500 +SHSN BKN005 BKN010CB
Conditions at: UKKM (GOSTOMEL' , UA) observed 0830 UTC 23 January 2019
Temperature: -8.0°C (18°F)
Dewpoint: -8.0°C (18°F) [RH = 100%]
Pressure (altimeter): 29.88 inches Hg (1012.0 mb)
Winds: from the E (100 degrees) at 9 MPH (8 knots; 4.1 m/s)
Visibility: 0.68 miles (1.09 km)
Ceiling: 2700 feet AGL
Clouds: scattered clouds at 1100 feet AGL
overcast cloud deck at 2700 feet AGL
Weather: SN BR  (moderate snow, mist)

METAR text: UKKM 230805Z 09004MPS 1300 1200NE R33/P2000D SN BR OVC017 M08/M09 Q1012 R33/491035 TEMPO 0800 +SHSN BKN005 BKN010CB
Conditions at: UKKM (GOSTOMEL' , UA) observed 0805 UTC 23 January 2019
Temperature: -8.0°C (18°F)
Dewpoint: -9.0°C (16°F) [RH = 92%]
Pressure (altimeter): 29.88 inches Hg (1012.0 mb)
Winds: from the E (90 degrees) at 9 MPH (8 knots; 4.1 m/s)
Visibility: 0.81 miles (1.30 km)
Ceiling: 1700 feet AGL
Clouds: overcast cloud deck at 1700 feet AGL
Weather: SN BR  (moderate snow, mist)

METAR text: UKKM 230800Z 09004MPS 1900 SN BR OVC017 M08/M09 Q1012 R33/491035 TEMPO 0800 +SHSN BKN005 BKN010CB
Conditions at: UKKM (GOSTOMEL' , UA) observed 0800 UTC 23 January 2019
Temperature: -8.0°C (18°F)
Dewpoint: -9.0°C (16°F) [RH = 92%]
Pressure (altimeter): 29.88 inches Hg (1012.0 mb)
Winds: from the E (90 degrees) at 9 MPH (8 knots; 4.1 m/s)
Visibility: 1.18 miles (1.90 km)
Ceiling: 1700 feet AGL
Clouds: overcast cloud deck at 1700 feet AGL
Weather: SN BR  (moderate snow, mist)

METAR text: UKKM 230748Z 09004MPS 1700 SN BR OVC034 M08/M09 Q1012 R33/491035 TEMPO 0800 +SHSN BKN005 BKN010CB
Conditions at: UKKM (GOSTOMEL' , UA) observed 0748 UTC 23 January 2019
Temperature: -8.0°C (18°F)
Dewpoint: -9.0°C (16°F) [RH = 92%]
Pressure (altimeter): 29.88 inches Hg (1012.0 mb)
Winds: from the E (90 degrees) at 9 MPH (8 knots; 4.1 m/s)
Visibility: 1.06 miles (1.71 km)
Ceiling: 3400 feet AGL
Clouds: overcast cloud deck at 3400 feet AGL
Weather: SN BR  (moderate snow, mist)

METAR text: UKKM 230730Z 10005MPS 1400 1300NE R33/P2000D SN BR OVC019 M08/M09 Q1012 R33/491035 TEMPO 0800 +SHSN BKN005 BKN010CB
Conditions at: UKKM (GOSTOMEL' , UA) observed 0730 UTC 23 January 2019
Temperature: -8.0°C (18°F)
Dewpoint: -9.0°C (16°F) [RH = 92%]
Pressure (altimeter): 29.88 inches Hg (1012.0 mb)
Winds: from the E (100 degrees) at 12 MPH (10 knots; 5.1 m/s)
Visibility: 0.87 miles (1.40 km)
Ceiling: 1900 feet AGL
Clouds: overcast cloud deck at 1900 feet AGL
Weather: SN BR  (moderate snow, mist)

METAR text: UKKM 230710Z 09004MPS 2000 -SN BR OVC018 M08/M09 Q1012 R15/491035 TEMPO 0800 +SHSN BKN005 BKN010CB
Conditions at: UKKM (GOSTOMEL' , UA) observed 0710 UTC 23 January 2019
Temperature: -8.0°C (18°F)
Dewpoint: -9.0°C (16°F) [RH = 92%]
Pressure (altimeter): 29.88 inches Hg (1012.0 mb)
Winds: from the E (90 degrees) at 9 MPH (8 knots; 4.1 m/s)
Visibility: 1.24 miles (2.00 km)
Ceiling: 1800 feet AGL
Clouds: overcast cloud deck at 1800 feet AGL
Weather: -SN BR  (light snow, mist)

METAR text: UKKM 230700Z 09004MPS 060V120 1300 R15/1300D SN BR OVC028 M08/M09 Q1012 R15/491035 TEMPO 0800 +SHSN BKN005 BKN010CB
Conditions at: UKKM (GOSTOMEL' , UA) observed 0700 UTC 23 January 2019
Temperature: -8.0°C (18°F)
Dewpoint: -9.0°C (16°F) [RH = 92%]
Pressure (altimeter): 29.88 inches Hg (1012.0 mb)
Winds: from the E (90 degrees) at 9 MPH (8 knots; 4.1 m/s)
Visibility: 0.81 miles (1.30 km)
Ceiling: 2800 feet AGL
Clouds: overcast cloud deck at 2800 feet AGL
Weather: SN BR  (moderate snow, mist)

METAR text: UKKM 230630Z 10005MPS 1700 -SN BR OVC025 M08/M09 Q1012
Conditions at: UKKM (GOSTOMEL' , UA) observed 0630 UTC 23 January 2019
Temperature: -8.0°C (18°F)
Dewpoint: -9.0°C (16°F) [RH = 92%]
Pressure (altimeter): 29.88 inches Hg (1012.0 mb)
Winds: from the E (100 degrees) at 12 MPH (10 knots; 5.1 m/s)
Visibility: 1.06 miles (1.71 km)
Ceiling: 2500 feet AGL
Clouds: overcast cloud deck at 2500 feet AGL
Weather: -SN BR  (light snow, mist)

METAR text: UKKM 230600Z 10004MPS 1700 -SN BR OVC027 M08/M09 Q1013
Conditions at: UKKM (GOSTOMEL' , UA) observed 0600 UTC 23 January 2019
Temperature: -8.0°C (18°F)
Dewpoint: -9.0°C (16°F) [RH = 92%]
Pressure (altimeter): 29.91 inches Hg (1013.0 mb)
Winds: from the E (100 degrees) at 9 MPH (8 knots; 4.1 m/s)
Visibility: 1.06 miles (1.71 km)
Ceiling: 2700 feet AGL
Clouds: overcast cloud deck at 2700 feet AGL
Weather: -SN BR  (light snow, mist)

METAR text: UKKM 230530Z 10005MPS 2900 -SN BR OVC026 M08/M09 Q1013
Conditions at: UKKM (GOSTOMEL' , UA) observed 0530 UTC 23 January 2019
Temperature: -8.0°C (18°F)
Dewpoint: -9.0°C (16°F) [RH = 92%]
Pressure (altimeter): 29.91 inches Hg (1013.0 mb)
Winds: from the E (100 degrees) at 12 MPH (10 knots; 5.1 m/s)
Visibility: 1.80 miles (2.90 km)
Ceiling: 2600 feet AGL
Clouds: overcast cloud deck at 2600 feet AGL
Weather: -SN BR  (light snow, mist)

METAR text: UKKM 230500Z AUTO 10004MPS 3300 -SN ///029/// M08/M09 Q1013
Conditions at: UKKM (GOSTOMEL' , UA) observed 0500 UTC 23 January 2019
Temperature: -8.0°C (18°F)
Dewpoint: -9.0°C (16°F) [RH = 92%]
Pressure (altimeter): 29.91 inches Hg (1013.0 mb)
Winds: from the E (100 degrees) at 9 MPH (8 knots; 4.1 m/s)
Visibility: 2.05 miles (3.30 km)
Ceiling: unknown
Clouds: missing
Weather: -SN  (light snow)

METAR text: UKKM 230430Z AUTO 09004MPS 3600 -SN ///026/// M08/M09 Q1013
Conditions at: UKKM (GOSTOMEL' , UA) observed 0430 UTC 23 January 2019
Temperature: -8.0°C (18°F)
Dewpoint: -9.0°C (16°F) [RH = 92%]
Pressure (altimeter): 29.91 inches Hg (1013.0 mb)
Winds: from the E (90 degrees) at 9 MPH (8 knots; 4.1 m/s)
Visibility: 2.24 miles (3.60 km)
Ceiling: unknown
Clouds: missing
Weather: -SN  (light snow)

METAR text: UKKM 230400Z AUTO 09004MPS 3100 -SN ///023/// M08/M09 Q1013
Conditions at: UKKM (GOSTOMEL' , UA) observed 0400 UTC 23 January 2019
Temperature: -8.0°C (18°F)
Dewpoint: -9.0°C (16°F) [RH = 92%]
Pressure (altimeter): 29.91 inches Hg (1013.0 mb)
Winds: from the E (90 degrees) at 9 MPH (8 knots; 4.1 m/s)
Visibility: 1.93 miles (3.11 km)
Ceiling: unknown
Clouds: missing
Weather: -SN  (light snow)

METAR text: UKKM 230330Z AUTO 09004MPS 2800 -SN ///018/// M08/M09 Q1014
Conditions at: UKKM (GOSTOMEL' , UA) observed 0330 UTC 23 January 2019
Temperature: -8.0°C (18°F)
Dewpoint: -9.0°C (16°F) [RH = 92%]
Pressure (altimeter): 29.94 inches Hg (1014.0 mb)
Winds: from the E (90 degrees) at 9 MPH (8 knots; 4.1 m/s)
Visibility: 1.74 miles (2.80 km)
Ceiling: unknown
Clouds: missing
Weather: -SN  (light snow)

METAR text: UKKM 230300Z AUTO 09004MPS 2800 -SN ///021/// M08/M09 Q1014
Conditions at: UKKM (GOSTOMEL' , UA) observed 0300 UTC 23 January 2019
Temperature: -8.0°C (18°F)
Dewpoint: -9.0°C (16°F) [RH = 92%]
Pressure (altimeter): 29.94 inches Hg (1014.0 mb)
Winds: from the E (90 degrees) at 9 MPH (8 knots; 4.1 m/s)
Visibility: 1.74 miles (2.80 km)
Ceiling: unknown
Clouds: missing
Weather: -SN  (light snow)

METAR text: UKKM 230230Z AUTO 10004MPS 2900 -SN ///024/// M08/M09 Q1014
Conditions at: UKKM (GOSTOMEL' , UA) observed 0230 UTC 23 January 2019
Temperature: -8.0°C (18°F)
Dewpoint: -9.0°C (16°F) [RH = 92%]
Pressure (altimeter): 29.94 inches Hg (1014.0 mb)
Winds: from the E (100 degrees) at 9 MPH (8 knots; 4.1 m/s)
Visibility: 1.80 miles (2.90 km)
Ceiling: unknown
Clouds: missing
Weather: -SN  (light snow)

METAR text: UKKM 230200Z AUTO 09003MPS 2800 -SN ///021/// M08/M08 Q1015
Conditions at: UKKM (GOSTOMEL' , UA) observed 0200 UTC 23 January 2019
Temperature: -8.0°C (18°F)
Dewpoint: -8.0°C (18°F) [RH = 100%]
Pressure (altimeter): 29.97 inches Hg (1015.0 mb)
Winds: from the E (90 degrees) at 7 MPH (6 knots; 3.1 m/s)
Visibility: 1.74 miles (2.80 km)
Ceiling: unknown
Clouds: missing
Weather: -SN  (light snow)

METAR text: UKKM 230130Z AUTO 09003MPS 3000 -SN ///029/// M08/M08 Q1015
Conditions at: UKKM (GOSTOMEL' , UA) observed 0130 UTC 23 January 2019
Temperature: -8.0°C (18°F)
Dewpoint: -8.0°C (18°F) [RH = 100%]
Pressure (altimeter): 29.97 inches Hg (1015.0 mb)
Winds: from the E (90 degrees) at 7 MPH (6 knots; 3.1 m/s)
Visibility: 1.86 miles (2.99 km)
Ceiling: unknown
Clouds: missing
Weather: -SN  (light snow)

METAR text: UKKM 230100Z AUTO 09003MPS 3600 -SN ///027/// M07/M08 Q1016
Conditions at: UKKM (GOSTOMEL' , UA) observed 0100 UTC 23 January 2019
Temperature: -7.0°C (19°F)
Dewpoint: -8.0°C (18°F) [RH = 93%]
Pressure (altimeter): 30.00 inches Hg (1016.0 mb)
Winds: from the E (90 degrees) at 7 MPH (6 knots; 3.1 m/s)
Visibility: 2.24 miles (3.60 km)
Ceiling: unknown
Clouds: missing
Weather: -SN  (light snow)

METAR text: UKKM 230030Z AUTO 11003MPS 4400 -SN ///026/// M07/M08 Q1016
Conditions at: UKKM (GOSTOMEL' , UA) observed 0030 UTC 23 January 2019
Temperature: -7.0°C (19°F)
Dewpoint: -8.0°C (18°F) [RH = 93%]
Pressure (altimeter): 30.00 inches Hg (1016.0 mb)
Winds: from the ESE (110 degrees) at 7 MPH (6 knots; 3.1 m/s)
Visibility: 2.73 miles (4.39 km)
Ceiling: unknown
Clouds: missing
Weather: -SN  (light snow)

METAR text: UKKM 230000Z AUTO 11003MPS 3500 -SN ///023/// M07/M08 Q1016
Conditions at: UKKM (GOSTOMEL' , UA) observed 0000 UTC 23 January 2019
Temperature: -7.0°C (19°F)
Dewpoint: -8.0°C (18°F) [RH = 93%]
Pressure (altimeter): 30.00 inches Hg (1016.0 mb)
Winds: from the ESE (110 degrees) at 7 MPH (6 knots; 3.1 m/s)
Visibility: 2.17 miles (3.49 km)
Ceiling: unknown
Clouds: missing
Weather: -SN  (light snow)

METAR text: UKKM 222330Z AUTO 13003MPS 6000 -SN ///038/// M07/M10 Q1017
Conditions at: UKKM (GOSTOMEL' , UA) observed 2330 UTC 22 January 2019
Temperature: -7.0°C (19°F)
Dewpoint: -10.0°C (14°F) [RH = 79%]
Pressure (altimeter): 30.03 inches Hg (1017.0 mb)
Winds: from the SE (130 degrees) at 7 MPH (6 knots; 3.1 m/s)
Visibility: 4 miles ( 6 km)
Ceiling: unknown
Clouds: missing
Weather: -SN  (light snow)

METAR text: UKKM 222300Z AUTO 12003MPS 090V150 9999 -SN NSC M07/M10 Q1017
Conditions at: UKKM (GOSTOMEL' , UA) observed 2300 UTC 22 January 2019
Temperature: -7.0°C (19°F)
Dewpoint: -10.0°C (14°F) [RH = 79%]
Pressure (altimeter): 30.03 inches Hg (1017.0 mb)
Winds: from the ESE (120 degrees) at 7 MPH (6 knots; 3.1 m/s)
Visibility: 6 or more miles (10+ km)
Ceiling: at least 12,000 feet AGL
Clouds: sky clear below 12,000 feet AGL
Weather: -SN  (light snow)

METAR text: UKKM 222230Z AUTO 13003MPS 9999 // NSC M07/M11 Q1017
Conditions at: UKKM (GOSTOMEL' , UA) observed 2230 UTC 22 January 2019
Temperature: -7.0°C (19°F)
Dewpoint: -11.0°C (12°F) [RH = 73%]
Pressure (altimeter): 30.03 inches Hg (1017.0 mb)
Winds: from the SE (130 degrees) at 7 MPH (6 knots; 3.1 m/s)
Visibility: 6 or more miles (10+ km)
Ceiling: at least 12,000 feet AGL
Clouds: sky clear below 12,000 feet AGL
Weather: no significant weather observed at this time

METAR text: UKKM 222200Z AUTO 12002MPS 9999 // NSC M07/M11 Q1017
Conditions at: UKKM (GOSTOMEL' , UA) observed 2200 UTC 22 January 2019
Temperature: -7.0°C (19°F)
Dewpoint: -11.0°C (12°F) [RH = 73%]
Pressure (altimeter): 30.03 inches Hg (1017.0 mb)
Winds: from the ESE (120 degrees) at 5 MPH (4 knots; 2.1 m/s)
Visibility: 6 or more miles (10+ km)
Ceiling: at least 12,000 feet AGL
Clouds: sky clear below 12,000 feet AGL
Weather: no significant weather observed at this time

METAR text: UKKM 222130Z AUTO 11002MPS 090V150 9999 // ///050/// M07/M11 Q1018
Conditions at: UKKM (GOSTOMEL' , UA) observed 2130 UTC 22 January 2019
Temperature: -7.0°C (19°F)
Dewpoint: -11.0°C (12°F) [RH = 73%]
Pressure (altimeter): 30.06 inches Hg (1018.0 mb)
Winds: from the ESE (110 degrees) at 5 MPH (4 knots; 2.1 m/s)
Visibility: 6 or more miles (10+ km)
Ceiling: unknown
Clouds: missing
Weather: no significant weather observed at this time

METAR text: UKKM 222100Z AUTO 11002MPS 9999 // ///048/// M06/M11 Q1018
Conditions at: UKKM (GOSTOMEL' , UA) observed 2100 UTC 22 January 2019
Temperature: -6.0°C (21°F)
Dewpoint: -11.0°C (12°F) [RH = 68%]
Pressure (altimeter): 30.06 inches Hg (1018.0 mb)
Winds: from the ESE (110 degrees) at 5 MPH (4 knots; 2.1 m/s)
Visibility: 6 or more miles (10+ km)
Ceiling: unknown
Clouds: missing
Weather: no significant weather observed at this time

METAR text: UKKM 222030Z AUTO 13002MPS 9999 // ///032/// M07/M11 Q1018
Conditions at: UKKM (GOSTOMEL' , UA) observed 2030 UTC 22 January 2019
Temperature: -7.0°C (19°F)
Dewpoint: -11.0°C (12°F) [RH = 73%]
Pressure (altimeter): 30.06 inches Hg (1018.0 mb)
Winds: from the SE (130 degrees) at 5 MPH (4 knots; 2.1 m/s)
Visibility: 6 or more miles (10+ km)
Ceiling: unknown
Clouds: missing
Weather: no significant weather observed at this time

METAR text: UKKM 222000Z AUTO 14003MPS 9000 // ///031/// M06/M11 Q1018
Conditions at: UKKM (GOSTOMEL' , UA) observed 2000 UTC 22 January 2019
Temperature: -6.0°C (21°F)
Dewpoint: -11.0°C (12°F) [RH = 68%]
Pressure (altimeter): 30.06 inches Hg (1018.0 mb)
Winds: from the SE (140 degrees) at 7 MPH (6 knots; 3.1 m/s)
Visibility: 6 miles ( 9 km)
Ceiling: unknown
Clouds: missing
Weather: no significant weather observed at this time

METAR text: UKKM 221930Z AUTO 14002MPS 9999 // ///031/// M06/M11 Q1018
Conditions at: UKKM (GOSTOMEL' , UA) observed 1930 UTC 22 January 2019
Temperature: -6.0°C (21°F)
Dewpoint: -11.0°C (12°F) [RH = 68%]
Pressure (altimeter): 30.06 inches Hg (1018.0 mb)
Winds: from the SE (140 degrees) at 5 MPH (4 knots; 2.1 m/s)
Visibility: 6 or more miles (10+ km)
Ceiling: unknown
Clouds: missing
Weather: no significant weather observed at this time

METAR text: UKKM 221900Z AUTO 15003MPS 9999 // ///031/// M06/M10 Q1018
Conditions at: UKKM (GOSTOMEL' , UA) observed 1900 UTC 22 January 2019
Temperature: -6.0°C (21°F)
Dewpoint: -10.0°C (14°F) [RH = 73%]
Pressure (altimeter): 30.06 inches Hg (1018.0 mb)
Winds: from the SSE (150 degrees) at 7 MPH (6 knots; 3.1 m/s)
Visibility: 6 or more miles (10+ km)
Ceiling: unknown
Clouds: missing
Weather: no significant weather observed at this time

METAR text: UKKM 221830Z AUTO 16003MPS 9999 // ///033/// M06/M10 Q1019
Conditions at: UKKM (GOSTOMEL' , UA) observed 1830 UTC 22 January 2019
Temperature: -6.0°C (21°F)
Dewpoint: -10.0°C (14°F) [RH = 73%]
Pressure (altimeter): 30.09 inches Hg (1019.0 mb)
Winds: from the SSE (160 degrees) at 7 MPH (6 knots; 3.1 m/s)
Visibility: 6 or more miles (10+ km)
Ceiling: unknown
Clouds: missing
Weather: no significant weather observed at this time

METAR text: UKKM 221800Z AUTO 16003MPS 130V190 9999 // ///033/// M06/M10 Q1019
Conditions at: UKKM (GOSTOMEL' , UA) observed 1800 UTC 22 January 2019
Temperature: -6.0°C (21°F)
Dewpoint: -10.0°C (14°F) [RH = 73%]
Pressure (altimeter): 30.09 inches Hg (1019.0 mb)
Winds: from the SSE (160 degrees) at 7 MPH (6 knots; 3.1 m/s)
Visibility: 6 or more miles (10+ km)
Ceiling: unknown
Clouds: missing
Weather: no significant weather observed at this time

METAR text: UKKM 221730Z AUTO 16003MPS 9999 // ///033/// M06/M10 Q1019
Conditions at: UKKM (GOSTOMEL' , UA) observed 1730 UTC 22 January 2019
Temperature: -6.0°C (21°F)
Dewpoint: -10.0°C (14°F) [RH = 73%]
Pressure (altimeter): 30.09 inches Hg (1019.0 mb)
Winds: from the SSE (160 degrees) at 7 MPH (6 knots; 3.1 m/s)
Visibility: 6 or more miles (10+ km)
Ceiling: unknown
Clouds: missing
Weather: no significant weather observed at this time

METAR text: UKKM 221700Z AUTO 16004MPS 9999 // ///033/// M06/M09 Q1019
Conditions at: UKKM (GOSTOMEL' , UA) observed 1700 UTC 22 January 2019
Temperature: -6.0°C (21°F)
Dewpoint: -9.0°C (16°F) [RH = 79%]
Pressure (altimeter): 30.09 inches Hg (1019.0 mb)
Winds: from the SSE (160 degrees) at 9 MPH (8 knots; 4.1 m/s)
Visibility: 6 or more miles (10+ km)
Ceiling: unknown
Clouds: missing
Weather: no significant weather observed at this time

METAR text: UKKM 221630Z AUTO 16003MPS 9999 // ///033/// M06/M09 Q1019
Conditions at: UKKM (GOSTOMEL' , UA) observed 1630 UTC 22 January 2019
Temperature: -6.0°C (21°F)
Dewpoint: -9.0°C (16°F) [RH = 79%]
Pressure (altimeter): 30.09 inches Hg (1019.0 mb)
Winds: from the SSE (160 degrees) at 7 MPH (6 knots; 3.1 m/s)
Visibility: 6 or more miles (10+ km)
Ceiling: unknown
Clouds: missing
Weather: no significant weather observed at this time

METAR text: UKKM 221600Z AUTO 16003MPS 9999 // ///033/// M06/M09 Q1019
Conditions at: UKKM (GOSTOMEL' , UA) observed 1600 UTC 22 January 2019
Temperature: -6.0°C (21°F)
Dewpoint: -9.0°C (16°F) [RH = 79%]
Pressure (altimeter): 30.09 inches Hg (1019.0 mb)
Winds: from the SSE (160 degrees) at 7 MPH (6 knots; 3.1 m/s)
Visibility: 6 or more miles (10+ km)
Ceiling: unknown
Clouds: missing
Weather: no significant weather observed at this time

METAR text: UKKM 221530Z AUTO 17002MPS 9999 // ///032/// M06/M09 Q1019
Conditions at: UKKM (GOSTOMEL' , UA) observed 1530 UTC 22 January 2019
Temperature: -6.0°C (21°F)
Dewpoint: -9.0°C (16°F) [RH = 79%]
Pressure (altimeter): 30.09 inches Hg (1019.0 mb)
Winds: from the S (170 degrees) at 5 MPH (4 knots; 2.1 m/s)
Visibility: 6 or more miles (10+ km)
Ceiling: unknown
Clouds: missing
Weather: no significant weather observed at this time

METAR text: UKKM 221500Z 17003MPS 9999 OVC032 M06/M10 Q1019 R33/710345 NOSIG
Conditions at: UKKM (GOSTOMEL' , UA) observed 1500 UTC 22 January 2019
Temperature: -6.0°C (21°F)
Dewpoint: -10.0°C (14°F) [RH = 73%]
Pressure (altimeter): 30.09 inches Hg (1019.0 mb)
Winds: from the S (170 degrees) at 7 MPH (6 knots; 3.1 m/s)
Visibility: 6 or more miles (10+ km)
Ceiling: 3200 feet AGL
Clouds: overcast cloud deck at 3200 feet AGL
Weather: no significant weather observed at this time

METAR text: UKKM 221430Z 15003MPS 9999 OVC033 M06/M11 Q1019 R33/710345 NOSIG
Conditions at: UKKM (GOSTOMEL' , UA) observed 1430 UTC 22 January 2019
Temperature: -6.0°C (21°F)
Dewpoint: -11.0°C (12°F) [RH = 68%]
Pressure (altimeter): 30.09 inches Hg (1019.0 mb)
Winds: from the SSE (150 degrees) at 7 MPH (6 knots; 3.1 m/s)
Visibility: 6 or more miles (10+ km)
Ceiling: 3300 feet AGL
Clouds: overcast cloud deck at 3300 feet AGL
Weather: no significant weather observed at this time

METAR text: UKKM 221400Z 17003MPS 9999 OVC034 M05/M11 Q1019 R33/710345 NOSIG
Conditions at: UKKM (GOSTOMEL' , UA) observed 1400 UTC 22 January 2019
Temperature: -5.0°C (23°F)
Dewpoint: -11.0°C (12°F) [RH = 63%]
Pressure (altimeter): 30.09 inches Hg (1019.0 mb)
Winds: from the S (170 degrees) at 7 MPH (6 knots; 3.1 m/s)
Visibility: 6 or more miles (10+ km)
Ceiling: 3400 feet AGL
Clouds: overcast cloud deck at 3400 feet AGL
Weather: no significant weather observed at this time

METAR text: UKKM 221330Z 21002MPS 170V240 9999 OVC033 M05/M12 Q1020 R33/710345 NOSIG
Conditions at: UKKM (GOSTOMEL' , UA) observed 1330 UTC 22 January 2019
Temperature: -5.0°C (23°F)
Dewpoint: -12.0°C (10°F) [RH = 58%]
Pressure (altimeter): 30.12 inches Hg (1020.0 mb)
Winds: from the SSW (210 degrees) at 5 MPH (4 knots; 2.1 m/s)
Visibility: 6 or more miles (10+ km)
Ceiling: 3300 feet AGL
Clouds: overcast cloud deck at 3300 feet AGL
Weather: no significant weather observed at this time

METAR text: UKKM 221300Z 22002MPS 190V250 9999 -SN OVC032 M05/M12 Q1020 R33/710345 NOSIG
Conditions at: UKKM (GOSTOMEL' , UA) observed 1300 UTC 22 January 2019
Temperature: -5.0°C (23°F)
Dewpoint: -12.0°C (10°F) [RH = 58%]
Pressure (altimeter): 30.12 inches Hg (1020.0 mb)
Winds: from the SW (220 degrees) at 5 MPH (4 knots; 2.1 m/s)
Visibility: 6 or more miles (10+ km)
Ceiling: 3200 feet AGL
Clouds: overcast cloud deck at 3200 feet AGL
Weather: -SN  (light snow)

METAR text: UKKM 221230Z 21003MPS 180V240 9999 OVC033 M05/M11 Q1020 R33/710345 NOSIG
Conditions at: UKKM (GOSTOMEL' , UA) observed 1230 UTC 22 January 2019
Temperature: -5.0°C (23°F)
Dewpoint: -11.0°C (12°F) [RH = 63%]
Pressure (altimeter): 30.12 inches Hg (1020.0 mb)
Winds: from the SSW (210 degrees) at 7 MPH (6 knots; 3.1 m/s)
Visibility: 6 or more miles (10+ km)
Ceiling: 3300 feet AGL
Clouds: overcast cloud deck at 3300 feet AGL
Weather: no significant weather observed at this time

METAR text: UKKM 221200Z 22003MPS 170V260 9999 OVC032 M05/M12 Q1020 R33/710345 NOSIG
Conditions at: UKKM (GOSTOMEL' , UA) observed 1200 UTC 22 January 2019
Temperature: -5.0°C (23°F)
Dewpoint: -12.0°C (10°F) [RH = 58%]
Pressure (altimeter): 30.12 inches Hg (1020.0 mb)
Winds: from the SW (220 degrees) at 7 MPH (6 knots; 3.1 m/s)
Visibility: 6 or more miles (10+ km)
Ceiling: 3200 feet AGL
Clouds: overcast cloud deck at 3200 feet AGL
Weather: no significant weather observed at this time

METAR text: UKKM 221130Z 19003MPS 9999 BKN032 M05/M12 Q1020 R33/710345 NOSIG
Conditions at: UKKM (GOSTOMEL' , UA) observed 1130 UTC 22 January 2019
Temperature: -5.0°C (23°F)
Dewpoint: -12.0°C (10°F) [RH = 58%]
Pressure (altimeter): 30.12 inches Hg (1020.0 mb)
Winds: from the S (190 degrees) at 7 MPH (6 knots; 3.1 m/s)
Visibility: 6 or more miles (10+ km)
Ceiling: 3200 feet AGL
Clouds: broken clouds at 3200 feet AGL
Weather: no significant weather observed at this time

METAR text: UKKM 221100Z 21003MPS 9999 BKN033 M05/M11 Q1021 R33/710345 NOSIG
Conditions at: UKKM (GOSTOMEL' , UA) observed 1100 UTC 22 January 2019
Temperature: -5.0°C (23°F)
Dewpoint: -11.0°C (12°F) [RH = 63%]
Pressure (altimeter): 30.15 inches Hg (1021.0 mb)
Winds: from the SSW (210 degrees) at 7 MPH (6 knots; 3.1 m/s)
Visibility: 6 or more miles (10+ km)
Ceiling: 3300 feet AGL
Clouds: broken clouds at 3300 feet AGL
Weather: no significant weather observed at this time

METAR text: UKKM 221030Z 21002MPS 180V240 9999 OVC033 M05/M10 Q1021 R33/710345 NOSIG
Conditions at: UKKM (GOSTOMEL' , UA) observed 1030 UTC 22 January 2019
Temperature: -5.0°C (23°F)
Dewpoint: -10.0°C (14°F) [RH = 68%]
Pressure (altimeter): 30.15 inches Hg (1021.0 mb)
Winds: from the SSW (210 degrees) at 5 MPH (4 knots; 2.1 m/s)
Visibility: 6 or more miles (10+ km)
Ceiling: 3300 feet AGL
Clouds: overcast cloud deck at 3300 feet AGL
Weather: no significant weather observed at this time

METAR text: UKKM 221000Z 18001MPS 9999 BKN033 M06/M10 Q1021 R33/710345 NOSIG
Conditions at: UKKM (GOSTOMEL' , UA) observed 1000 UTC 22 January 2019
Temperature: -6.0°C (21°F)
Dewpoint: -10.0°C (14°F) [RH = 73%]
Pressure (altimeter): 30.15 inches Hg (1021.0 mb)
Winds: from the S (180 degrees) at 2 MPH (2 knots; 1.0 m/s)
Visibility: 6 or more miles (10+ km)
Ceiling: 3300 feet AGL
Clouds: broken clouds at 3300 feet AGL
Weather: no significant weather observed at this time

METAR text: UKKM 220930Z 19002MPS 9999 BKN033 M07/M10 Q1021 R33/710345 NOSIG
Conditions at: UKKM (GOSTOMEL' , UA) observed 0930 UTC 22 January 2019
Temperature: -7.0°C (19°F)
Dewpoint: -10.0°C (14°F) [RH = 79%]
Pressure (altimeter): 30.15 inches Hg (1021.0 mb)
Winds: from the S (190 degrees) at 5 MPH (4 knots; 2.1 m/s)
Visibility: 6 or more miles (10+ km)
Ceiling: 3300 feet AGL
Clouds: broken clouds at 3300 feet AGL
Weather: no significant weather observed at this time

METAR text: UKKM 220900Z 21002MPS 9999 BKN033 M08/M10 Q1021 R33/710345 NOSIG
Conditions at: UKKM (GOSTOMEL' , UA) observed 0900 UTC 22 January 2019
Temperature: -8.0°C (18°F)
Dewpoint: -10.0°C (14°F) [RH = 85%]
Pressure (altimeter): 30.15 inches Hg (1021.0 mb)
Winds: from the SSW (210 degrees) at 5 MPH (4 knots; 2.1 m/s)
Visibility: 6 or more miles (10+ km)
Ceiling: 3300 feet AGL
Clouds: broken clouds at 3300 feet AGL
Weather: no significant weather observed at this time

Forecast for: UKKM (GOSTOMEL' , UA)
Text: TAF UKKM 231105Z 2312/2412 10005G10MPS 1500 SN BR OVC007 TXM05/2412Z TNM12/2406Z
Forecast period: 1200 to 2100 UTC 23 January 2019
Forecast type: FROM: standard forecast or significant change
Winds: from the E (100 degrees) at 12 MPH (10 knots; 5.1 m/s)
gusting to 22 MPH (19 knots; 9.8 m/s)
Visibility: 0.93 miles (1.50 km)
Ceiling: 700 feet AGL
Clouds: overcast cloud deck at 700 feet AGL
Weather: SN BR  (moderate snow, mist)
Text: TEMPO 2312/2321 07009G14MPS 0500 +SHSN BLSN BKN002 BKN010CB
Forecast period: 1200 to 2100 UTC 23 January 2019
Forecast type: TEMPORARY: The following changes expected for less than half the time period
Winds: from the ENE (70 degrees) at 20 MPH (17 knots; 8.7 m/s)
gusting to 31 MPH (27 knots; 13.9 m/s)
Visibility: 0.31 miles (0.50 km)
Ceiling: 200 feet AGL
Clouds: broken clouds at 200 feet AGL
broken clouds at 1000 feet AGL
Weather: +SHSN BLSN  (heavy snow showers, blowing snow)
Text: BECMG 2321/2323 03005G10MPS 4000 BR OVC007
Forecast period: 2100 UTC 23 January 2019 to 1200 UTC 24 January 2019
Forecast type: BECOMING: Conditions expected to become as follows by 2300 UTC 23 January 2019
Winds: from the NNE (30 degrees) at 12 MPH (10 knots; 5.1 m/s)
gusting to 22 MPH (19 knots; 9.8 m/s)
Visibility: 2.49 miles (4.01 km)
Ceiling: 700 feet AGL
Clouds: overcast cloud deck at 700 feet AGL
Weather: BR  (mist)
Text: TEMPO 2323/2412 2100 -SHSN BR BKN004 BKN010CB
Forecast period: 2300 UTC 23 January 2019 to 1200 UTC 24 January 2019
Forecast type: TEMPORARY: The following changes expected for less than half the time period
Visibility: 1.30 miles (2.09 km)
Ceiling: 400 feet AGL
Clouds: broken clouds at 400 feet AGL
broken clouds at 1000 feet AGL
Weather: -SHSN BR  (light snow showers, mist)